sensor_id;sensor_type;location;lat;lon;timestamp;pressure;altitude;pressure_sealevel;temperature;humidity
25526;BME280;13424;48.424;11.258;2024-02-23T00:00:55;93563.47;;;11.46;74.93
25526;BME280;13424;48.424;11.258;2024-02-23T00:03:21;93561.56;;;11.33;74.74
25526;BME280;13424;48.424;11.258;2024-02-23T00:05:47;93562.69;;;11.46;74.93
25526;BME280;13424;48.424;11.258;2024-02-23T00:08:13;93572.56;;;11.13;75.64
25526;BME280;13424;48.424;11.258;2024-02-23T00:10:48;93592.84;;;11.46;75.00
25526;BME280;13424;48.424;11.258;2024-02-23T00:13:14;93591.16;;;11.18;76.03
25526;BME280;13424;48.424;11.258;2024-02-23T00:15:40;93598.41;;;11.31;75.68
25526;BME280;13424;48.424;11.258;2024-02-23T00:18:07;93607.75;;;11.15;75.43
25526;BME280;13424;48.424;11.258;2024-02-23T00:20:34;93615.41;;;11.03;75.24
25526;BME280;13424;48.424;11.258;2024-02-23T00:23:01;93618.78;;;10.71;74.85
25526;BME280;13424;48.424;11.258;2024-02-23T00:25:27;93627.22;;;10.97;74.99
25526;BME280;13424;48.424;11.258;2024-02-23T00:27:53;93632.41;;;11.07;75.61
25526;BME280;13424;48.424;11.258;2024-02-23T00:30:19;93645.19;;;10.91;75.13
25526;BME280;13424;48.424;11.258;2024-02-23T00:32:45;93661.78;;;10.64;74.98
25526;BME280;13424;48.424;11.258;2024-02-23T00:35:11;93668.16;;;10.68;75.55
25526;BME280;13424;48.424;11.258;2024-02-23T00:37:37;93670.09;;;11.19;74.38
25526;BME280;13424;48.424;11.258;2024-02-23T00:40:04;93674.91;;;10.60;75.53
25526;BME280;13424;48.424;11.258;2024-02-23T00:42:31;93682.22;;;10.93;73.99
25526;BME280;13424;48.424;11.258;2024-02-23T00:44:57;93679.25;;;10.75;74.03
25526;BME280;13424;48.424;11.258;2024-02-23T00:47:23;93674.31;;;10.45;74.54
25526;BME280;13424;48.424;11.258;2024-02-23T00:49:49;93676.00;;;10.59;74.69
25526;BME280;13424;48.424;11.258;2024-02-23T00:52:16;93688.13;;;10.47;74.04
25526;BME280;13424;48.424;11.258;2024-02-23T00:54:42;93683.13;;;10.40;73.44
25526;BME280;13424;48.424;11.258;2024-02-23T00:57:08;93689.16;;;10.51;73.85
25526;BME280;13424;48.424;11.258;2024-02-23T00:59:34;93700.53;;;10.32;73.49
25526;BME280;13424;48.424;11.258;2024-02-23T01:02:00;93704.41;;;10.16;72.77
25526;BME280;13424;48.424;11.258;2024-02-23T01:04:26;93699.00;;;10.26;72.40
25526;BME280;13424;48.424;11.258;2024-02-23T01:06:52;93711.69;;;10.58;70.87
25526;BME280;13424;48.424;11.258;2024-02-23T01:09:18;93705.38;;;10.30;70.63
25526;BME280;13424;48.424;11.258;2024-02-23T01:11:49;93715.25;;;10.30;70.52
25526;BME280;13424;48.424;11.258;2024-02-23T01:14:15;93719.53;;;9.97;71.43
25526;BME280;13424;48.424;11.258;2024-02-23T01:16:41;93718.50;;;10.22;70.60
25526;BME280;13424;48.424;11.258;2024-02-23T01:19:07;93721.19;;;10.17;69.52
25526;BME280;13424;48.424;11.258;2024-02-23T01:21:33;93720.00;;;10.33;69.44
25526;BME280;13424;48.424;11.258;2024-02-23T01:23:59;93724.16;;;10.15;69.60
25526;BME280;13424;48.424;11.258;2024-02-23T01:26:26;93729.53;;;10.39;69.14
25526;BME280;13424;48.424;11.258;2024-02-23T01:28:53;93730.50;;;10.19;69.44
25526;BME280;13424;48.424;11.258;2024-02-23T01:31:19;93738.47;;;10.24;69.11
25526;BME280;13424;48.424;11.258;2024-02-23T01:33:45;93739.13;;;10.11;68.34
25526;BME280;13424;48.424;11.258;2024-02-23T01:36:11;93752.22;;;10.37;68.95
25526;BME280;13424;48.424;11.258;2024-02-23T01:38:37;93753.47;;;10.10;68.62
25526;BME280;13424;48.424;11.258;2024-02-23T01:41:06;93762.06;;;10.36;68.59
25526;BME280;13424;48.424;11.258;2024-02-23T01:43:32;93761.53;;;10.05;68.70
25526;BME280;13424;48.424;11.258;2024-02-23T01:45:58;93761.53;;;10.05;68.67
25526;BME280;13424;48.424;11.258;2024-02-23T01:48:25;93767.88;;;10.09;68.67
25526;BME280;13424;48.424;11.258;2024-02-23T01:50:51;93769.63;;;10.24;68.83
25526;BME280;13424;48.424;11.258;2024-02-23T01:53:18;93777.28;;;10.36;68.70
25526;BME280;13424;48.424;11.258;2024-02-23T01:55:46;93769.16;;;10.17;68.74
25526;BME280;13424;48.424;11.258;2024-02-23T01:58:13;93769.00;;;10.03;68.64
25526;BME280;13424;48.424;11.258;2024-02-23T02:00:39;93757.84;;;10.01;67.96
25526;BME280;13424;48.424;11.258;2024-02-23T02:03:05;93768.56;;;9.91;67.86
25526;BME280;13424;48.424;11.258;2024-02-23T02:05:31;93766.41;;;9.93;68.28
25526;BME280;13424;48.424;11.258;2024-02-23T02:07:57;93779.44;;;9.65;69.62
25526;BME280;13424;48.424;11.258;2024-02-23T02:10:26;93792.47;;;9.67;71.01
25526;BME280;13424;48.424;11.258;2024-02-23T02:12:53;93798.91;;;9.06;72.87
25526;BME280;13424;48.424;11.258;2024-02-23T02:15:19;93801.56;;;9.11;73.10
25526;BME280;13424;48.424;11.258;2024-02-23T02:17:47;93814.94;;;8.91;73.34
25526;BME280;13424;48.424;11.258;2024-02-23T02:20:14;93806.78;;;8.67;75.23
25526;BME280;13424;48.424;11.258;2024-02-23T02:22:40;93809.44;;;8.67;75.67
25526;BME280;13424;48.424;11.258;2024-02-23T02:25:07;93820.38;;;8.25;77.10
25526;BME280;13424;48.424;11.258;2024-02-23T02:27:33;93827.84;;;7.92;78.74
25526;BME280;13424;48.424;11.258;2024-02-23T02:29:59;93833.16;;;7.82;79.53
25526;BME280;13424;48.424;11.258;2024-02-23T02:32:25;93842.88;;;7.31;80.88
25526;BME280;13424;48.424;11.258;2024-02-23T02:34:51;93837.34;;;7.47;80.17
25526;BME280;13424;48.424;11.258;2024-02-23T02:37:17;93832.00;;;7.32;80.99
25526;BME280;13424;48.424;11.258;2024-02-23T02:39:43;93840.16;;;7.10;81.97
25526;BME280;13424;48.424;11.258;2024-02-23T02:42:09;93843.13;;;7.34;81.26
25526;BME280;13424;48.424;11.258;2024-02-23T02:44:35;93829.44;;;7.83;79.74
25526;BME280;13424;48.424;11.258;2024-02-23T02:47:01;93835.50;;;7.73;80.43
25526;BME280;13424;48.424;11.258;2024-02-23T02:49:27;93842.41;;;7.54;80.28
25526;BME280;13424;48.424;11.258;2024-02-23T02:51:56;93844.69;;;7.15;81.11
25526;BME280;13424;48.424;11.258;2024-02-23T02:54:22;93840.47;;;7.34;81.17
25526;BME280;13424;48.424;11.258;2024-02-23T02:56:51;93838.66;;;7.50;80.24
25526;BME280;13424;48.424;11.258;2024-02-23T02:59:20;93844.44;;;7.21;82.06
25526;BME280;13424;48.424;11.258;2024-02-23T03:02:19;93838.19;;;7.68;79.96
25526;BME280;13424;48.424;11.258;2024-02-23T03:04:49;93845.31;;;7.52;80.17
25526;BME280;13424;48.424;11.258;2024-02-23T03:07:18;93857.50;;;7.48;80.47
25526;BME280;13424;48.424;11.258;2024-02-23T03:09:44;93854.00;;;7.27;80.72
25526;BME280;13424;48.424;11.258;2024-02-23T03:12:11;93870.81;;;7.79;79.58
25526;BME280;13424;48.424;11.258;2024-02-23T03:14:37;93867.31;;;7.58;79.75
25526;BME280;13424;48.424;11.258;2024-02-23T03:17:07;93858.06;;;7.81;78.69
25526;BME280;13424;48.424;11.258;2024-02-23T03:19:36;93856.53;;;7.90;78.42
25526;BME280;13424;48.424;11.258;2024-02-23T03:22:52;93854.38;;;7.97;78.09
25526;BME280;13424;48.424;11.258;2024-02-23T03:25:18;93855.16;;;7.98;78.33
25526;BME280;13424;48.424;11.258;2024-02-23T03:27:44;93858.91;;;8.07;78.58
25526;BME280;13424;48.424;11.258;2024-02-23T03:30:10;93853.59;;;8.22;77.50
25526;BME280;13424;48.424;11.258;2024-02-23T03:32:36;93860.50;;;8.23;76.44
25526;BME280;13424;48.424;11.258;2024-02-23T03:35:05;93852.25;;;8.04;76.64
25526;BME280;13424;48.424;11.258;2024-02-23T03:37:32;93854.41;;;8.23;76.17
25526;BME280;13424;48.424;11.258;2024-02-23T03:39:58;93853.06;;;8.25;76.27
25526;BME280;13424;48.424;11.258;2024-02-23T03:42:35;93848.28;;;8.43;75.18
25526;BME280;13424;48.424;11.258;2024-02-23T03:45:01;93838.91;;;8.81;73.96
25526;BME280;13424;48.424;11.258;2024-02-23T03:47:27;93826.63;;;8.90;73.30
25526;BME280;13424;48.424;11.258;2024-02-23T03:49:53;93810.84;;;9.14;72.82
25526;BME280;13424;48.424;11.258;2024-02-23T03:53:15;93818.38;;;8.97;73.11
25526;BME280;13424;48.424;11.258;2024-02-23T03:55:41;93813.84;;;9.02;72.82
25526;BME280;13424;48.424;11.258;2024-02-23T03:58:07;93821.28;;;9.00;73.03
25526;BME280;13424;48.424;11.258;2024-02-23T04:00:33;93821.84;;;8.92;73.80
25526;BME280;13424;48.424;11.258;2024-02-23T04:02:59;93830.88;;;8.96;73.68
25526;BME280;13424;48.424;11.258;2024-02-23T04:05:25;93832.56;;;8.72;74.75
25526;BME280;13424;48.424;11.258;2024-02-23T04:07:51;93833.03;;;8.94;73.65
25526;BME280;13424;48.424;11.258;2024-02-23T04:10:16;93841.75;;;9.00;73.96
25526;BME280;13424;48.424;11.258;2024-02-23T04:12:49;93841.84;;;8.79;73.80
25526;BME280;13424;48.424;11.258;2024-02-23T04:15:15;93847.72;;;8.71;74.56
25526;BME280;13424;48.424;11.258;2024-02-23T04:17:41;93852.50;;;8.69;74.30
25526;BME280;13424;48.424;11.258;2024-02-23T04:20:09;93851.16;;;8.72;74.72
25526;BME280;13424;48.424;11.258;2024-02-23T04:22:44;93853.78;;;8.87;74.31
25526;BME280;13424;48.424;11.258;2024-02-23T04:25:10;93858.53;;;8.95;74.39
25526;BME280;13424;48.424;11.258;2024-02-23T04:27:39;93856.34;;;9.12;73.06
25526;BME280;13424;48.424;11.258;2024-02-23T04:30:06;93851.16;;;8.72;74.18
25526;BME280;13424;48.424;11.258;2024-02-23T04:32:32;93851.63;;;8.94;73.52
25526;BME280;13424;48.424;11.258;2024-02-23T04:34:58;93855.41;;;8.67;74.04
25526;BME280;13424;48.424;11.258;2024-02-23T04:37:24;93853.25;;;8.75;73.87
25526;BME280;13424;48.424;11.258;2024-02-23T04:39:50;93849.22;;;8.92;73.76
25526;BME280;13424;48.424;11.258;2024-02-23T04:42:16;93850.03;;;8.88;73.67
25526;BME280;13424;48.424;11.258;2024-02-23T04:44:42;93849.50;;;8.91;73.09
25526;BME280;13424;48.424;11.258;2024-02-23T04:47:08;93857.69;;;9.10;73.34
25526;BME280;13424;48.424;11.258;2024-02-23T04:49:35;93853.22;;;8.90;73.84
25526;BME280;13424;48.424;11.258;2024-02-23T04:52:01;93855.59;;;9.02;73.33
25526;BME280;13424;48.424;11.258;2024-02-23T04:54:27;93852.38;;;9.10;72.71
25526;BME280;13424;48.424;11.258;2024-02-23T04:56:53;93842.69;;;9.34;72.05
25526;BME280;13424;48.424;11.258;2024-02-23T04:59:19;93847.28;;;9.13;72.63
25526;BME280;13424;48.424;11.258;2024-02-23T05:01:45;93841.13;;;9.23;71.94
25526;BME280;13424;48.424;11.258;2024-02-23T05:04:11;93845.69;;;9.17;72.32
25526;BME280;13424;48.424;11.258;2024-02-23T05:06:37;93837.28;;;8.90;72.98
25526;BME280;13424;48.424;11.258;2024-02-23T05:09:03;93825.94;;;9.23;72.16
25526;BME280;13424;48.424;11.258;2024-02-23T05:11:29;93822.31;;;9.09;72.20
25526;BME280;13424;48.424;11.258;2024-02-23T05:13:55;93830.03;;;9.06;72.44
25526;BME280;13424;48.424;11.258;2024-02-23T05:16:21;93824.41;;;9.17;72.04
25526;BME280;13424;48.424;11.258;2024-02-23T05:18:59;93824.63;;;9.26;71.27
25526;BME280;13424;48.424;11.258;2024-02-23T05:21:25;93830.88;;;8.96;71.69
25526;BME280;13424;48.424;11.258;2024-02-23T05:23:51;93830.47;;;9.23;71.16
25526;BME280;13424;48.424;11.258;2024-02-23T05:26:18;93830.81;;;9.16;71.41
25526;BME280;13424;48.424;11.258;2024-02-23T05:28:43;93835.13;;;8.92;71.24
25526;BME280;13424;48.424;11.258;2024-02-23T05:31:10;93838.78;;;9.11;70.90
25526;BME280;13424;48.424;11.258;2024-02-23T05:33:36;93847.44;;;9.42;70.28
25526;BME280;13424;48.424;11.258;2024-02-23T05:36:05;93843.03;;;9.17;70.41
25526;BME280;13424;48.424;11.258;2024-02-23T05:38:31;93853.22;;;8.90;71.24
25526;BME280;13424;48.424;11.258;2024-02-23T05:40:57;93854.81;;;8.96;70.71
25526;BME280;13424;48.424;11.258;2024-02-23T05:43:23;93870.06;;;8.50;71.66
25526;BME280;13424;48.424;11.258;2024-02-23T05:45:49;93867.81;;;9.03;70.58
25526;BME280;13424;48.424;11.258;2024-02-23T05:48:21;93869.22;;;8.85;69.84
25526;BME280;13424;48.424;11.258;2024-02-23T05:50:47;93870.81;;;8.81;70.55
25526;BME280;13424;48.424;11.258;2024-02-23T05:53:13;93877.19;;;8.80;70.65
25526;BME280;13424;48.424;11.258;2024-02-23T05:55:39;93878.72;;;8.96;69.42
25526;BME280;13424;48.424;11.258;2024-02-23T05:58:05;93878.78;;;8.86;69.52
25526;BME280;13424;48.424;11.258;2024-02-23T06:00:31;93877.69;;;8.82;69.34
25526;BME280;13424;48.424;11.258;2024-02-23T06:02:57;93885.94;;;8.75;69.34
25526;BME280;13424;48.424;11.258;2024-02-23T06:05:23;93891.50;;;8.94;68.68
25526;BME280;13424;48.424;11.258;2024-02-23T06:07:49;93904.81;;;8.94;68.53
25526;BME280;13424;48.424;11.258;2024-02-23T06:10:16;93893.63;;;9.02;68.37
25526;BME280;13424;48.424;11.258;2024-02-23T06:12:42;93904.84;;;8.74;69.08
25526;BME280;13424;48.424;11.258;2024-02-23T06:15:18;93893.72;;;8.61;68.94
25526;BME280;13424;48.424;11.258;2024-02-23T06:17:44;93888.38;;;8.72;68.76
25526;BME280;13424;48.424;11.258;2024-02-23T06:20:11;93891.50;;;8.84;68.32
25526;BME280;13424;48.424;11.258;2024-02-23T06:22:37;93897.91;;;8.88;68.05
25526;BME280;13424;48.424;11.258;2024-02-23T06:25:03;93891.28;;;8.80;68.41
25526;BME280;13424;48.424;11.258;2024-02-23T06:27:29;93906.91;;;8.97;67.65
25526;BME280;13424;48.424;11.258;2024-02-23T06:29:55;93909.53;;;9.07;67.64
25526;BME280;13424;48.424;11.258;2024-02-23T06:32:21;93907.97;;;8.96;67.51
25526;BME280;13424;48.424;11.258;2024-02-23T06:34:48;93919.31;;;9.32;66.89
25526;BME280;13424;48.424;11.258;2024-02-23T06:41:39;93919.94;;;9.68;66.20
25526;BME280;13424;48.424;11.258;2024-02-23T06:44:05;93914.88;;;9.72;66.25
25526;BME280;13424;48.424;11.258;2024-02-23T06:46:32;93914.53;;;9.84;66.37
25526;BME280;13424;48.424;11.258;2024-02-23T06:48:58;93902.94;;;9.64;66.48
25526;BME280;13424;48.424;11.258;2024-02-23T06:51:24;93896.13;;;9.38;67.70
25526;BME280;13424;48.424;11.258;2024-02-23T06:53:50;93889.22;;;9.86;66.52
25526;BME280;13424;48.424;11.258;2024-02-23T07:00:41;93901.00;;;10.19;66.39
25526;BME280;13424;48.424;11.258;2024-02-23T07:03:08;93912.97;;;10.22;66.31
25526;BME280;13424;48.424;11.258;2024-02-23T07:05:33;93911.66;;;10.19;65.92
25526;BME280;13424;48.424;11.258;2024-02-23T07:08:02;93920.69;;;10.28;65.50
25526;BME280;13424;48.424;11.258;2024-02-23T07:10:28;93929.19;;;10.30;65.64
25526;BME280;13424;48.424;11.258;2024-02-23T07:12:54;93932.94;;;10.29;65.36
25526;BME280;13424;48.424;11.258;2024-02-23T07:15:23;93940.06;;;9.90;67.60
25526;BME280;13424;48.424;11.258;2024-02-23T07:17:50;93936.47;;;9.65;67.99
25526;BME280;13424;48.424;11.258;2024-02-23T07:20:16;93937.56;;;9.54;69.05
25526;BME280;13424;48.424;11.258;2024-02-23T07:22:46;93940.84;;;9.41;69.11
25526;BME280;13424;48.424;11.258;2024-02-23T07:25:20;93948.09;;;9.85;67.97
25526;BME280;13424;48.424;11.258;2024-02-23T07:27:52;93946.44;;;9.94;67.19
25526;BME280;13424;48.424;11.258;2024-02-23T07:30:18;93947.25;;;9.30;69.25
25526;BME280;13424;48.424;11.258;2024-02-23T07:32:45;93948.34;;;9.88;67.69
25526;BME280;13424;48.424;11.258;2024-02-23T07:35:12;93948.13;;;10.19;66.67
25526;BME280;13424;48.424;11.258;2024-02-23T07:37:38;93953.91;;;9.92;67.25
25526;BME280;13424;48.424;11.258;2024-02-23T07:40:05;93946.41;;;10.04;67.08
25526;BME280;13424;48.424;11.258;2024-02-23T07:42:32;93956.41;;;10.27;66.68
25526;BME280;13424;48.424;11.258;2024-02-23T07:44:58;93954.63;;;10.02;66.99
25526;BME280;13424;48.424;11.258;2024-02-23T07:47:25;93950.56;;;10.15;66.28
25526;BME280;13424;48.424;11.258;2024-02-23T07:49:52;93948.44;;;10.22;66.42
25526;BME280;13424;48.424;11.258;2024-02-23T07:52:19;93954.38;;;9.44;68.75
25526;BME280;13424;48.424;11.258;2024-02-23T07:54:45;93951.53;;;9.90;68.18
25526;BME280;13424;48.424;11.258;2024-02-23T07:57:11;93958.25;;;10.22;65.92
25526;BME280;13424;48.424;11.258;2024-02-23T07:59:39;93956.75;;;9.56;68.45
25526;BME280;13424;48.424;11.258;2024-02-23T08:02:05;93945.25;;;10.10;66.75
25526;BME280;13424;48.424;11.258;2024-02-23T08:04:31;93946.78;;;10.26;65.84
25526;BME280;13424;48.424;11.258;2024-02-23T08:06:57;93944.94;;;10.22;66.49
25526;BME280;13424;48.424;11.258;2024-02-23T08:09:23;93927.78;;;9.94;66.92
25526;BME280;13424;48.424;11.258;2024-02-23T08:11:49;93912.47;;;9.75;68.40
25526;BME280;13424;48.424;11.258;2024-02-23T08:14:17;93913.34;;;10.05;66.34
25526;BME280;13424;48.424;11.258;2024-02-23T08:16:43;93908.97;;;10.24;66.28
25526;BME280;13424;48.424;11.258;2024-02-23T08:19:09;93924.66;;;10.31;65.99
25526;BME280;13424;48.424;11.258;2024-02-23T08:21:35;93930.66;;;10.02;66.35
25526;BME280;13424;48.424;11.258;2024-02-23T08:24:02;93923.22;;;10.44;65.14
25526;BME280;13424;48.424;11.258;2024-02-23T08:26:28;93940.63;;;10.36;65.33
25526;BME280;13424;48.424;11.258;2024-02-23T08:28:54;93938.69;;;10.42;64.35
25526;BME280;13424;48.424;11.258;2024-02-23T08:31:20;93947.34;;;10.23;64.38
25526;BME280;13424;48.424;11.258;2024-02-23T08:33:47;93945.78;;;10.56;64.24
25526;BME280;13424;48.424;11.258;2024-02-23T08:36:13;93951.97;;;10.47;64.70
25526;BME280;13424;48.424;11.258;2024-02-23T08:38:46;93944.59;;;10.39;64.44
25526;BME280;13424;48.424;11.258;2024-02-23T08:41:12;93938.13;;;10.05;65.87
25526;BME280;13424;48.424;11.258;2024-02-23T08:43:41;93951.88;;;10.28;64.80
25526;BME280;13424;48.424;11.258;2024-02-23T08:46:07;93958.38;;;10.46;64.61
25526;BME280;13424;48.424;11.258;2024-02-23T08:48:34;93967.72;;;9.99;65.24
25526;BME280;13424;48.424;11.258;2024-02-23T08:51:00;93973.75;;;9.65;66.19
25526;BME280;13424;48.424;11.258;2024-02-23T08:53:26;93968.31;;;9.86;65.49
25526;BME280;13424;48.424;11.258;2024-02-23T08:55:52;93976.41;;;9.65;65.45
25526;BME280;13424;48.424;11.258;2024-02-23T08:58:18;93970.47;;;9.78;65.88
25526;BME280;13424;48.424;11.258;2024-02-23T09:00:44;93970.09;;;10.05;64.79
25526;BME280;13424;48.424;11.258;2024-02-23T09:03:10;93978.38;;;9.94;65.13
25526;BME280;13424;48.424;11.258;2024-02-23T09:05:36;93976.47;;;9.45;65.37
25526;BME280;13424;48.424;11.258;2024-02-23T09:08:02;93993.44;;;9.64;65.95
25526;BME280;13424;48.424;11.258;2024-02-23T09:10:28;93996.50;;;9.92;64.54
25526;BME280;13424;48.424;11.258;2024-02-23T09:12:54;94000.34;;;9.65;65.48
25526;BME280;13424;48.424;11.258;2024-02-23T09:15:20;93995.84;;;9.61;65.01
25526;BME280;13424;48.424;11.258;2024-02-23T09:17:46;93987.09;;;9.50;64.64
25526;BME280;13424;48.424;11.258;2024-02-23T09:20:12;93984.28;;;9.91;64.09
25526;BME280;13424;48.424;11.258;2024-02-23T09:22:38;93996.28;;;9.88;63.63
25526;BME280;13424;48.424;11.258;2024-02-23T09:29:07;94006.09;;;9.93;64.55
25526;BME280;13424;48.424;11.258;2024-02-23T09:31:34;93995.81;;;10.25;63.72
25526;BME280;13424;48.424;11.258;2024-02-23T09:34:00;93992.56;;;9.84;63.71
25526;BME280;13424;48.424;11.258;2024-02-23T09:36:26;94002.84;;;10.01;64.05
25526;BME280;13424;48.424;11.258;2024-02-23T09:38:52;93995.50;;;9.77;64.07
25526;BME280;13424;48.424;11.258;2024-02-23T09:41:23;93994.97;;;9.81;65.56
25526;BME280;13424;48.424;11.258;2024-02-23T09:43:50;94007.34;;;9.41;64.62
25526;BME280;13424;48.424;11.258;2024-02-23T09:46:26;94003.03;;;9.65;64.86
25526;BME280;13424;48.424;11.258;2024-02-23T09:48:53;93992.84;;;9.77;64.54
25526;BME280;13424;48.424;11.258;2024-02-23T09:51:21;93986.41;;;9.89;64.04
25526;BME280;13424;48.424;11.258;2024-02-23T09:53:50;93990.53;;;10.10;63.32
25526;BME280;13424;48.424;11.258;2024-02-23T09:57:13;93990.53;;;10.15;62.90
25526;BME280;13424;48.424;11.258;2024-02-23T09:59:40;93997.97;;;10.18;62.99
25526;BME280;13424;48.424;11.258;2024-02-23T10:02:15;93985.66;;;10.32;61.97
25526;BME280;13424;48.424;11.258;2024-02-23T10:04:43;93987.50;;;10.37;63.28
25526;BME280;13424;48.424;11.258;2024-02-23T10:07:10;93984.63;;;10.28;62.11
25526;BME280;13424;48.424;11.258;2024-02-23T10:09:37;93990.28;;;10.61;61.42
25526;BME280;13424;48.424;11.258;2024-02-23T10:12:03;93995.59;;;10.61;61.68
25526;BME280;13424;48.424;11.258;2024-02-23T10:14:29;94007.53;;;10.29;61.81
25526;BME280;13424;48.424;11.258;2024-02-23T10:16:55;94001.53;;;9.98;62.52
25526;BME280;13424;48.424;11.258;2024-02-23T10:19:22;93999.03;;;10.17;62.30
25526;BME280;13424;48.424;11.258;2024-02-23T10:21:48;94006.94;;;9.88;63.29
25526;BME280;13424;48.424;11.258;2024-02-23T10:24:18;94013.81;;;10.49;61.75
25526;BME280;13424;48.424;11.258;2024-02-23T10:26:46;94001.69;;;10.17;61.34
25526;BME280;13424;48.424;11.258;2024-02-23T10:29:14;93997.09;;;10.33;61.72
25526;BME280;13424;48.424;11.258;2024-02-23T10:31:41;93998.50;;;10.20;61.44
25526;BME280;13424;48.424;11.258;2024-02-23T10:34:09;93998.88;;;10.48;61.43
25526;BME280;13424;48.424;11.258;2024-02-23T10:36:42;93996.88;;;10.29;61.56
25526;BME280;13424;48.424;11.258;2024-02-23T10:39:09;94008.56;;;10.33;61.70
25526;BME280;13424;48.424;11.258;2024-02-23T10:41:36;93998.81;;;10.58;61.03
25526;BME280;13424;48.424;11.258;2024-02-23T10:44:05;94003.28;;;11.02;59.99
25526;BME280;13424;48.424;11.258;2024-02-23T10:50:58;94001.66;;;10.32;60.11
25526;BME280;13424;48.424;11.258;2024-02-23T10:53:24;94000.41;;;10.59;59.17
25526;BME280;13424;48.424;11.258;2024-02-23T10:55:57;93998.56;;;10.54;59.43
25526;BME280;13424;48.424;11.258;2024-02-23T10:58:24;93994.75;;;10.21;60.05
25526;BME280;13424;48.424;11.258;2024-02-23T11:00:50;93997.41;;;10.26;61.10
25526;BME280;13424;48.424;11.258;2024-02-23T11:03:17;94005.28;;;10.52;60.40
25526;BME280;13424;48.424;11.258;2024-02-23T11:05:47;94004.28;;;10.43;59.81
25526;BME280;13424;48.424;11.258;2024-02-23T11:08:18;93998.28;;;10.56;60.27
25526;BME280;13424;48.424;11.258;2024-02-23T11:10:52;93995.13;;;10.54;59.02
25526;BME280;13424;48.424;11.258;2024-02-23T11:13:18;94004.88;;;10.69;59.08
25526;BME280;13424;48.424;11.258;2024-02-23T11:15:44;93988.31;;;10.32;60.57
25526;BME280;13424;48.424;11.258;2024-02-23T11:18:29;93989.41;;;10.66;59.49
25526;BME280;13424;48.424;11.258;2024-02-23T11:20:59;93987.38;;;10.92;58.50
25526;BME280;13424;48.424;11.258;2024-02-23T11:23:25;93981.31;;;10.47;58.53
25526;BME280;13424;48.424;11.258;2024-02-23T11:28:30;93981.38;;;11.29;56.87
25526;BME280;13424;48.424;11.258;2024-02-23T11:30:57;93990.28;;;11.19;57.21
25526;BME280;13424;48.424;11.258;2024-02-23T11:33:35;93993.63;;;11.06;57.70
25526;BME280;13424;48.424;11.258;2024-02-23T11:36:10;93999.56;;;10.98;58.42
25526;BME280;13424;48.424;11.258;2024-02-23T11:39:32;94000.47;;;10.49;57.36
25526;BME280;13424;48.424;11.258;2024-02-23T11:41:58;94006.63;;;10.83;57.46
25526;BME280;13424;48.424;11.258;2024-02-23T11:44:25;93990.56;;;10.88;57.83
25526;BME280;13424;48.424;11.258;2024-02-23T11:46:51;93989.34;;;11.05;57.39
25526;BME280;13424;48.424;11.258;2024-02-23T11:49:17;93989.47;;;11.24;57.03
25526;BME280;13424;48.424;11.258;2024-02-23T11:51:43;93983.09;;;11.19;57.00
25526;BME280;13424;48.424;11.258;2024-02-23T11:54:10;93977.78;;;10.90;58.11
25526;BME280;13424;48.424;11.258;2024-02-23T12:00:32;93971.72;;;11.38;54.92
25526;BME280;13424;48.424;11.258;2024-02-23T12:02:58;93974.59;;;11.41;55.94
25526;BME280;13424;48.424;11.258;2024-02-23T12:05:24;93967.47;;;11.08;56.02
25526;BME280;13424;48.424;11.258;2024-02-23T12:07:51;93968.06;;;10.31;57.58
25526;BME280;13424;48.424;11.258;2024-02-23T12:10:17;93965.88;;;10.78;56.49
25526;BME280;13424;48.424;11.258;2024-02-23T12:12:43;93968.16;;;11.18;55.61
25526;BME280;13424;48.424;11.258;2024-02-23T12:15:09;93967.94;;;11.15;55.85
25526;BME280;13424;48.424;11.258;2024-02-23T12:17:36;93965.88;;;10.78;56.55
25526;BME280;13424;48.424;11.258;2024-02-23T12:20:04;93961.97;;;10.65;57.00
25526;BME280;13424;48.424;11.258;2024-02-23T12:23:11;93951.78;;;10.72;57.00
25526;BME280;13424;48.424;11.258;2024-02-23T12:25:38;93951.47;;;11.08;56.89
25526;BME280;13424;48.424;11.258;2024-02-23T12:28:04;93966.28;;;11.67;55.17
25526;BME280;13424;48.424;11.258;2024-02-23T12:30:31;93966.75;;;11.26;56.24
25526;BME280;13424;48.424;11.258;2024-02-23T12:33:07;93965.16;;;11.73;55.83
25526;BME280;13424;48.424;11.258;2024-02-23T12:35:34;93964.25;;;11.83;56.41
25526;BME280;13424;48.424;11.258;2024-02-23T12:38:03;93967.00;;;11.54;57.51
25526;BME280;13424;48.424;11.258;2024-02-23T12:40:30;93968.13;;;11.71;56.86
25526;BME280;13424;48.424;11.258;2024-02-23T12:42:57;93959.97;;;10.81;58.08
25526;BME280;13424;48.424;11.258;2024-02-23T12:45:23;93963.34;;;11.44;58.56
25526;BME280;13424;48.424;11.258;2024-02-23T12:47:49;93964.66;;;11.71;57.98
25526;BME280;13424;48.424;11.258;2024-02-23T12:50:15;93971.16;;;11.12;60.73
25526;BME280;13424;48.424;11.258;2024-02-23T12:52:42;93962.06;;;11.13;62.06
25526;BME280;13424;48.424;11.258;2024-02-23T12:55:08;93964.22;;;10.48;63.53
25526;BME280;13424;48.424;11.258;2024-02-23T12:57:34;93977.38;;;10.34;63.95
25526;BME280;13424;48.424;11.258;2024-02-23T13:00:00;93971.25;;;9.84;65.16
25526;BME280;13424;48.424;11.258;2024-02-23T13:02:26;93975.44;;;10.84;63.58
25526;BME280;13424;48.424;11.258;2024-02-23T13:04:52;93978.78;;;9.72;65.67
25526;BME280;13424;48.424;11.258;2024-02-23T13:07:20;93966.16;;;9.93;65.31
25526;BME280;13424;48.424;11.258;2024-02-23T13:09:45;93964.63;;;9.82;65.78
25526;BME280;13424;48.424;11.258;2024-02-23T13:12:11;93954.56;;;9.68;65.54
25526;BME280;13424;48.424;11.258;2024-02-23T13:14:37;93943.69;;;10.09;64.78
25526;BME280;13424;48.424;11.258;2024-02-23T13:17:04;93937.19;;;9.16;66.21
25526;BME280;13424;48.424;11.258;2024-02-23T13:19:30;93931.03;;;9.86;65.37
25526;BME280;13424;48.424;11.258;2024-02-23T13:26:22;93942.38;;;10.06;66.06